createdAt,value
2022-08-19T00:02:01.305Z,68.54
2022-08-19T00:04:33.574Z,68.61
2022-08-19T00:07:01.015Z,68.34
2022-08-19T00:09:28.936Z,68.63
2022-08-19T00:11:57.437Z,68.69
2022-08-19T00:14:25.631Z,68.30
2022-08-19T00:16:55.371Z,68.41
2022-08-19T00:19:22.808Z,68.21
2022-08-19T00:21:49.364Z,68.09
2022-08-19T00:24:16.521Z,68.34
2022-08-19T00:26:45.395Z,68.60
2022-08-19T00:29:14.557Z,68.58
2022-08-19T00:31:42.790Z,68.49
2022-08-19T00:34:09.720Z,68.76
2022-08-19T00:36:36.242Z,69.17
2022-08-19T00:39:03.356Z,69.17
2022-08-19T00:41:30.074Z,69.00
2022-08-19T00:44:07.435Z,68.80
2022-08-19T00:46:37.468Z,68.50
2022-08-19T00:49:10.797Z,68.56
2022-08-19T00:51:37.592Z,68.27
2022-08-19T00:54:04.652Z,68.32
2022-08-19T00:56:32.307Z,68.19
2022-08-19T00:59:02.725Z,67.99
2022-08-19T01:01:29.751Z,68.33
2022-08-19T01:03:57.972Z,68.17
2022-08-19T01:06:26.674Z,68.05
2022-08-19T01:08:53.491Z,67.91
2022-08-19T01:11:20.059Z,67.86
2022-08-19T01:13:50.084Z,67.94
2022-08-19T01:16:18.667Z,67.93
2022-08-19T01:18:45.909Z,68.08
2022-08-19T01:21:43.542Z,68.44
2022-08-19T01:24:10.118Z,68.25
2022-08-19T01:26:45.767Z,68.54
2022-08-19T01:29:15.341Z,68.50
2022-08-19T01:31:42.120Z,68.70
2022-08-19T01:34:08.781Z,68.11
2022-08-19T01:36:46.508Z,68.00
2022-08-19T01:39:17.285Z,67.92
2022-08-19T01:41:44.000Z,68.01
2022-08-19T01:44:18.708Z,67.65
2022-08-19T01:46:48.605Z,67.88
2022-08-19T01:49:17.376Z,67.68
2022-08-19T01:51:43.947Z,68.11
2022-08-19T01:54:13.100Z,67.93
2022-08-19T01:56:39.963Z,68.07
2022-08-19T01:59:13.189Z,67.94
2022-08-19T02:01:39.814Z,68.26
2022-08-19T02:04:06.765Z,68.30
2022-08-19T02:06:34.124Z,68.26
2022-08-19T02:09:00.735Z,68.55
2022-08-19T02:11:34.516Z,68.76
2022-08-19T02:14:04.434Z,68.58
2022-08-19T02:16:31.686Z,68.62
2022-08-19T02:19:01.530Z,68.60
2022-08-19T02:21:29.272Z,68.81
2022-08-19T02:23:56.380Z,68.99
2022-08-19T02:26:22.989Z,69.06
2022-08-19T02:28:49.536Z,69.07
2022-08-19T02:31:20.051Z,69.15
2022-08-19T02:33:47.005Z,69.16
2022-08-19T02:36:15.553Z,69.17
2022-08-19T02:38:43.283Z,69.36
2022-08-19T02:41:19.325Z,69.56
2022-08-19T02:44:18.345Z,69.49
2022-08-19T02:46:34.393Z,69.82
2022-08-19T02:49:06.113Z,69.61
2022-08-19T02:51:36.512Z,69.67
2022-08-19T02:54:05.024Z,69.68
2022-08-19T02:56:32.211Z,69.64
2022-08-19T02:58:59.314Z,69.87
2022-08-19T03:01:30.272Z,70.05
2022-08-19T03:03:57.940Z,70.49
2022-08-19T03:06:24.665Z,70.82
2022-08-19T03:08:51.719Z,70.76
2022-08-19T03:11:27.857Z,71.07
2022-08-19T03:13:55.306Z,71.24
2022-08-19T03:16:28.493Z,71.55
2022-08-19T03:18:56.996Z,71.55
2022-08-19T03:21:25.847Z,71.49
2022-08-19T03:23:56.477Z,71.87
2022-08-19T03:26:23.102Z,71.82
2022-08-19T03:28:51.671Z,72.05
2022-08-19T03:31:44.351Z,72.18
2022-08-19T03:34:18.715Z,72.10
2022-08-19T03:36:46.735Z,72.33
2022-08-19T03:39:13.561Z,72.59
2022-08-19T03:41:45.319Z,72.67
2022-08-19T03:44:19.427Z,72.79
2022-08-19T03:46:56.247Z,72.64
2022-08-19T03:49:27.132Z,72.95
2022-08-19T03:51:57.663Z,72.65
2022-08-19T03:54:25.445Z,73.09
2022-08-19T03:56:54.640Z,72.71
2022-08-19T03:59:26.060Z,72.47
2022-08-19T04:01:54.468Z,72.47
2022-08-19T04:04:21.028Z,72.24
2022-08-19T04:06:48.199Z,71.94
2022-08-19T04:09:14.883Z,72.16
2022-08-19T04:11:47.851Z,72.30
2022-08-19T04:14:18.838Z,72.12
2022-08-19T04:16:46.158Z,72.62
2022-08-19T04:19:14.034Z,72.57
2022-08-19T04:21:41.419Z,72.73
2022-08-19T04:24:08.196Z,72.83
2022-08-19T04:26:37.644Z,73.33
2022-08-19T04:29:27.875Z,73.31
2022-08-19T04:31:56.575Z,73.93
2022-08-19T04:34:25.778Z,74.05
2022-08-19T04:36:54.362Z,74.01
2022-08-19T04:39:44.672Z,74.18
2022-08-19T04:42:30.798Z,74.29
2022-08-19T04:44:59.649Z,74.65
2022-08-19T04:47:47.819Z,74.23
2022-08-19T04:50:13.252Z,74.06
2022-08-19T04:52:43.811Z,73.93
2022-08-19T04:55:15.203Z,73.76
2022-08-19T04:57:42.152Z,73.61
2022-08-19T05:00:12.108Z,73.42
2022-08-19T05:02:39.655Z,73.04
2022-08-19T05:05:07.601Z,73.40
2022-08-19T05:07:34.879Z,73.13
2022-08-19T05:10:01.588Z,73.09
2022-08-19T05:12:29.780Z,72.74
2022-08-19T05:14:58.009Z,72.85
2022-08-19T05:17:27.907Z,72.71
2022-08-19T05:20:14.874Z,72.58
2022-08-19T05:22:42.836Z,72.82
2022-08-19T05:25:13.817Z,72.52
2022-08-19T05:27:42.310Z,71.65
2022-08-19T05:30:10.291Z,71.85
2022-08-19T05:32:37.203Z,71.85
2022-08-19T05:35:05.452Z,71.56
2022-08-19T05:37:31.991Z,70.98
2022-08-19T05:39:58.624Z,70.47
2022-08-19T05:42:25.255Z,70.22
2022-08-19T05:44:52.064Z,69.89
2022-08-19T05:47:20.627Z,69.09
2022-08-19T05:49:48.154Z,69.20
2022-08-19T05:52:18.722Z,69.42
2022-08-19T05:54:51.321Z,69.20
2022-08-19T05:57:19.173Z,68.93
2022-08-19T05:59:48.684Z,68.83
2022-08-19T06:02:15.685Z,69.26
2022-08-19T06:04:43.886Z,68.61
2022-08-19T06:07:12.189Z,68.94
2022-08-19T06:09:40.405Z,68.47
2022-08-19T06:12:07.522Z,67.69
2022-08-19T06:14:40.203Z,67.13
2022-08-19T06:17:07.648Z,66.60
2022-08-19T06:19:34.775Z,66.21
2022-08-19T06:22:07.754Z,66.05
2022-08-19T06:24:34.616Z,65.84
2022-08-19T06:27:01.983Z,66.80
2022-08-19T06:29:31.188Z,67.05
2022-08-19T06:32:00.519Z,66.82
2022-08-19T06:34:29.634Z,67.10
2022-08-19T06:36:57.338Z,66.25
2022-08-19T06:39:26.693Z,65.20
2022-08-19T06:41:58.693Z,64.45
2022-08-19T06:44:27.978Z,64.39
2022-08-19T06:46:56.106Z,64.31
2022-08-19T06:49:24.289Z,62.61
2022-08-19T06:51:51.944Z,62.78
2022-08-19T06:54:20.246Z,61.52
2022-08-19T06:56:48.098Z,60.67
2022-08-19T06:59:18.813Z,58.87
2022-08-19T07:01:47.974Z,59.51
2022-08-19T07:04:20.950Z,58.10
2022-08-19T07:06:54.907Z,57.77
2022-08-19T07:09:21.823Z,57.34
2022-08-19T07:11:51.648Z,57.19
2022-08-19T07:14:24.847Z,56.65
2022-08-19T07:16:53.105Z,57.62
2022-08-19T07:19:20.597Z,57.75
2022-08-19T07:21:50.603Z,57.81
2022-08-19T07:24:18.184Z,57.37
2022-08-19T07:26:45.661Z,56.51
2022-08-19T07:29:13.709Z,56.19
2022-08-19T07:31:40.745Z,53.08
2022-08-19T07:34:14.334Z,53.21
2022-08-19T07:36:43.171Z,53.12
2022-08-19T07:39:19.735Z,52.79
2022-08-19T07:41:47.272Z,51.29
2022-08-19T07:44:15.146Z,51.83
2022-08-19T07:46:46.518Z,52.30
2022-08-19T07:49:19.997Z,51.31
2022-08-19T07:52:02.239Z,50.88
2022-08-19T07:54:31.435Z,50.54
2022-08-19T07:56:58.279Z,49.98
2022-08-19T07:59:25.091Z,50.26
2022-08-19T08:01:52.452Z,49.95
2022-08-19T08:04:38.682Z,50.28
2022-08-19T08:07:25.581Z,50.54
2022-08-19T08:09:58.622Z,50.42
2022-08-19T08:12:35.170Z,51.17
2022-08-19T08:15:08.940Z,50.74
2022-08-19T08:17:49.310Z,49.79
2022-08-19T08:20:19.131Z,50.53
2022-08-19T08:23:06.143Z,49.53
2022-08-19T08:25:34.391Z,49.29
2022-08-19T08:28:02.430Z,47.93
2022-08-19T08:30:32.808Z,47.09
2022-08-19T08:32:59.776Z,48.25
2022-08-19T08:35:26.348Z,48.84
2022-08-19T08:37:55.569Z,50.31
2022-08-19T08:40:33.072Z,50.29
2022-08-19T08:43:32.411Z,51.25
2022-08-19T08:46:12.363Z,51.48
2022-08-19T08:48:54.451Z,50.71
2022-08-19T08:51:49.068Z,52.26
2022-08-19T08:54:33.230Z,51.25
2022-08-19T08:57:03.367Z,49.60
2022-08-19T08:59:35.236Z,49.60
2022-08-19T09:02:01.910Z,49.41
2022-08-19T09:04:29.188Z,49.84
2022-08-19T09:07:22.878Z,49.28
2022-08-19T09:10:27.751Z,48.64
2022-08-19T09:13:24.748Z,48.52
2022-08-19T09:16:13.969Z,47.75
2022-08-19T09:18:40.475Z,48.44
2022-08-19T09:21:08.709Z,47.76
2022-08-19T09:23:36.651Z,47.54
2022-08-19T09:26:14.440Z,46.96
2022-08-19T09:28:44.954Z,48.20
2022-08-19T09:31:18.693Z,48.31
2022-08-19T09:33:45.875Z,49.08
2022-08-19T09:36:21.647Z,48.67
2022-08-19T09:38:54.017Z,47.71
2022-08-19T09:41:23.074Z,47.73
2022-08-19T09:43:53.113Z,47.95
2022-08-19T09:46:23.992Z,47.26
2022-08-19T09:48:52.313Z,48.12
2022-08-19T09:51:25.617Z,47.24
2022-08-19T09:53:54.928Z,47.50
2022-08-19T09:56:22.790Z,47.46
2022-08-19T09:58:52.050Z,47.52
2022-08-19T10:01:22.355Z,46.64
2022-08-19T10:03:52.119Z,46.25
2022-08-19T10:06:19.581Z,47.20
2022-08-19T10:09:08.985Z,47.28
2022-08-19T10:11:40.088Z,47.41
2022-08-19T10:14:08.116Z,47.05
2022-08-19T10:16:39.475Z,47.24
2022-08-19T10:19:06.237Z,47.17
2022-08-19T10:21:35.207Z,47.37
2022-08-19T10:24:04.975Z,47.64
2022-08-19T10:26:38.281Z,47.39
2022-08-19T10:29:06.443Z,46.48
2022-08-19T10:32:01.337Z,45.21
2022-08-19T10:34:27.849Z,44.37
2022-08-19T10:37:00.938Z,44.83
2022-08-19T10:39:32.865Z,45.79
2022-08-19T10:42:08.270Z,46.06
2022-08-19T10:44:36.439Z,46.78
2022-08-19T10:47:04.735Z,46.97
2022-08-19T10:50:02.952Z,47.58
2022-08-19T10:52:35.160Z,45.41
2022-08-19T10:55:26.355Z,45.53
2022-08-19T10:58:03.641Z,44.91
2022-08-19T11:00:32.435Z,44.91
2022-08-19T11:02:59.011Z,44.40
2022-08-19T11:05:25.594Z,43.84
2022-08-19T11:07:52.759Z,43.58
2022-08-19T11:10:21.862Z,43.23
2022-08-19T11:12:49.152Z,43.60
2022-08-19T11:15:16.324Z,43.10
2022-08-19T11:17:44.789Z,42.81
2022-08-19T11:20:15.923Z,41.53
2022-08-19T11:22:43.230Z,40.97
2022-08-19T11:25:11.882Z,40.71
2022-08-19T11:27:44.401Z,40.82
2022-08-19T11:30:14.063Z,40.47
2022-08-19T11:32:48.781Z,40.40
2022-08-19T11:35:17.114Z,42.16
2022-08-19T11:37:43.734Z,42.93
2022-08-19T11:40:10.923Z,41.28
2022-08-19T11:42:56.607Z,41.41
2022-08-19T11:45:28.162Z,42.15
2022-08-19T11:47:55.590Z,40.76
2022-08-19T11:50:26.438Z,41.33
2022-08-19T11:52:57.908Z,40.25
2022-08-19T11:55:24.990Z,41.14
2022-08-19T11:57:51.694Z,41.62
2022-08-19T12:00:18.430Z,40.91
2022-08-19T12:02:44.971Z,41.34
2022-08-19T12:05:12.865Z,41.30
2022-08-19T12:07:41.783Z,39.61
2022-08-19T12:10:08.966Z,39.33
2022-08-19T12:12:35.614Z,38.33
2022-08-19T12:15:02.812Z,37.59
2022-08-19T12:17:29.651Z,37.71
2022-08-19T12:19:56.291Z,37.71
2022-08-19T12:22:23.061Z,36.10
2022-08-19T12:24:51.773Z,36.76
2022-08-19T12:27:31.086Z,37.48
2022-08-19T12:30:08.744Z,37.17
2022-08-19T12:32:35.767Z,37.42
2022-08-19T12:35:02.340Z,38.03
2022-08-19T12:37:28.876Z,38.22
2022-08-19T12:39:55.503Z,38.99
2022-08-19T12:42:22.999Z,38.57
2022-08-19T12:44:49.555Z,39.54
2022-08-19T12:47:16.145Z,38.94
2022-08-19T12:49:53.867Z,38.26
2022-08-19T12:52:23.803Z,36.49
2022-08-19T12:54:53.803Z,35.98
2022-08-19T12:57:21.643Z,36.02
2022-08-19T12:59:54.613Z,36.42
2022-08-19T13:02:22.335Z,37.49
2022-08-19T13:04:48.857Z,37.29
2022-08-19T13:07:15.576Z,36.90
2022-08-19T13:09:43.561Z,35.99
2022-08-19T13:12:13.833Z,36.22
2022-08-19T13:14:42.009Z,36.20
2022-08-19T13:17:09.574Z,36.25
2022-08-19T13:19:38.004Z,34.85
2022-08-19T13:22:04.591Z,34.88
2022-08-19T13:24:42.860Z,34.72
2022-08-19T13:27:11.782Z,35.23
2022-08-19T13:30:00.080Z,34.28
2022-08-19T13:32:44.978Z,33.83
2022-08-19T13:35:14.912Z,33.99
2022-08-19T13:37:45.598Z,34.30
2022-08-19T13:40:18.010Z,34.29
2022-08-19T13:42:47.381Z,34.59
2022-08-19T13:45:16.157Z,34.65
2022-08-19T13:47:45.865Z,34.83
2022-08-19T13:50:14.752Z,34.98
2022-08-19T13:52:41.537Z,35.03
2022-08-19T13:55:09.329Z,35.30
2022-08-19T13:57:36.246Z,35.82
2022-08-19T14:00:05.741Z,34.56
2022-08-19T14:02:32.377Z,35.01
2022-08-19T14:04:59.871Z,35.04
2022-08-19T14:07:26.462Z,34.77
2022-08-19T14:09:53.019Z,35.01
2022-08-19T14:12:28.421Z,34.97
2022-08-19T14:14:55.492Z,35.33
2022-08-19T14:17:22.548Z,35.05
2022-08-19T14:19:49.094Z,34.81
2022-08-19T14:22:15.680Z,34.20
2022-08-19T14:24:49.266Z,34.53
2022-08-19T14:27:15.834Z,34.30
2022-08-19T14:29:42.796Z,34.81
2022-08-19T14:32:14.449Z,33.88
2022-08-19T14:34:43.534Z,34.05
2022-08-19T14:37:10.499Z,33.52
2022-08-19T14:39:43.644Z,33.25
2022-08-19T14:42:11.568Z,32.92
2022-08-19T14:44:38.672Z,33.94
2022-08-19T14:47:05.432Z,33.19
2022-08-19T14:49:35.003Z,33.81
2022-08-19T14:52:08.962Z,33.97
2022-08-19T14:54:35.541Z,33.14
2022-08-19T14:57:02.189Z,33.14
2022-08-19T14:59:28.917Z,33.07
2022-08-19T15:01:55.521Z,32.30
2022-08-19T15:04:22.121Z,33.44
2022-08-19T15:06:48.717Z,33.04
2022-08-19T15:09:15.315Z,33.22
2022-08-19T15:11:43.637Z,32.04
2022-08-19T15:14:11.123Z,32.35
2022-08-19T15:16:38.983Z,32.18
2022-08-19T15:19:05.528Z,32.29
2022-08-19T15:21:32.116Z,32.81
2022-08-19T15:23:59.852Z,32.71
2022-08-19T15:26:28.695Z,32.64
2022-08-19T15:28:55.421Z,32.50
2022-08-19T15:31:28.504Z,32.88
2022-08-19T15:33:59.249Z,32.42
2022-08-19T15:36:27.170Z,32.93
2022-08-19T15:38:54.138Z,32.82
2022-08-19T15:41:27.405Z,34.70
2022-08-19T15:43:59.681Z,32.34
2022-08-19T15:46:29.370Z,33.08
2022-08-19T15:48:59.898Z,32.06
2022-08-19T15:51:28.874Z,32.24
2022-08-19T15:53:55.585Z,31.72
2022-08-19T15:56:26.705Z,32.07
2022-08-19T15:59:12.536Z,32.01
2022-08-19T16:01:57.921Z,31.52
2022-08-19T16:04:43.603Z,31.01
2022-08-19T16:07:10.343Z,31.03
2022-08-19T16:09:36.955Z,30.95
2022-08-19T16:12:06.108Z,31.32
2022-08-19T16:14:35.335Z,31.43
2022-08-19T16:17:02.380Z,31.71
2022-08-19T16:19:28.974Z,31.98
2022-08-19T16:21:56.875Z,32.26
2022-08-19T16:24:26.854Z,31.89
2022-08-19T16:26:54.244Z,32.21
2022-08-19T16:29:34.533Z,32.85
2022-08-19T16:32:07.896Z,32.65
2022-08-19T16:34:34.661Z,32.52
2022-08-19T16:37:01.410Z,32.79
2022-08-19T16:39:28.018Z,32.51
2022-08-19T16:41:54.665Z,31.75
2022-08-19T16:44:21.482Z,31.93
2022-08-19T16:46:55.725Z,31.43
2022-08-19T16:49:53.051Z,31.74
2022-08-19T16:52:17.545Z,31.36
2022-08-19T16:54:44.764Z,30.79
2022-08-19T16:57:12.351Z,31.29
2022-08-19T16:59:42.598Z,31.16
2022-08-19T17:02:17.629Z,31.66
2022-08-19T17:04:44.228Z,31.90
2022-08-19T17:07:22.553Z,31.49
2022-08-19T17:09:49.421Z,31.02
2022-08-19T17:12:17.438Z,31.25
2022-08-19T17:14:46.098Z,31.64
2022-08-19T17:17:12.909Z,31.40
2022-08-19T17:19:41.816Z,31.23
2022-08-19T17:22:11.373Z,30.79
2022-08-19T17:24:38.630Z,30.91
2022-08-19T17:27:07.819Z,31.25
2022-08-19T17:29:34.980Z,31.71
2022-08-19T17:32:02.019Z,31.90
2022-08-19T17:34:28.713Z,31.86
2022-08-19T17:36:57.155Z,32.30
2022-08-19T17:39:25.348Z,32.36
2022-08-19T17:41:52.069Z,32.89
2022-08-19T17:44:18.991Z,33.01
2022-08-19T17:46:46.664Z,32.88
2022-08-19T17:49:13.575Z,33.35
2022-08-19T17:51:44.008Z,33.66
2022-08-19T17:54:15.230Z,33.87
2022-08-19T17:56:42.340Z,34.48
2022-08-19T17:59:13.887Z,34.80
2022-08-19T18:01:53.441Z,34.87
2022-08-19T18:04:21.282Z,35.35
2022-08-19T18:06:53.143Z,35.01
2022-08-19T18:09:41.694Z,35.71
2022-08-19T18:12:10.855Z,35.47
2022-08-19T18:14:39.365Z,35.64
2022-08-19T18:17:10.825Z,36.20
2022-08-19T18:19:41.094Z,36.16
2022-08-19T18:22:28.886Z,36.31
2022-08-19T18:24:57.683Z,36.67
2022-08-19T18:27:26.385Z,36.90
2022-08-19T18:29:54.658Z,36.81
2022-08-19T18:32:24.093Z,37.02
2022-08-19T18:34:51.844Z,37.12
2022-08-19T18:37:19.086Z,36.88
2022-08-19T18:40:04.441Z,37.25
2022-08-19T18:42:49.718Z,37.25
2022-08-19T18:45:34.714Z,37.19
2022-08-19T18:48:26.652Z,37.69
2022-08-19T18:50:54.791Z,37.51
2022-08-19T18:53:21.328Z,38.14
2022-08-19T18:55:52.013Z,38.05
2022-08-19T18:58:18.664Z,38.09
2022-08-19T19:00:45.501Z,38.56
2022-08-19T19:03:12.104Z,38.18
2022-08-19T19:05:39.993Z,38.45
2022-08-19T19:08:07.541Z,38.44
2022-08-19T19:10:36.226Z,38.32
2022-08-19T19:13:03.669Z,38.27
2022-08-19T19:15:30.355Z,38.60
2022-08-19T19:17:57.317Z,38.45
2022-08-19T19:20:36.688Z,38.99
2022-08-19T19:23:04.098Z,38.90
2022-08-19T19:25:50.373Z,38.93
2022-08-19T19:28:28.629Z,39.54
2022-08-19T19:30:59.805Z,39.13
2022-08-19T19:33:27.756Z,39.53
2022-08-19T19:35:54.473Z,39.59
2022-08-19T19:38:21.074Z,39.69
2022-08-19T19:40:47.665Z,39.74
2022-08-19T19:43:17.462Z,40.03
2022-08-19T19:45:44.352Z,40.28
2022-08-19T19:48:13.785Z,40.30
2022-08-19T19:50:41.216Z,40.47
2022-08-19T19:53:07.754Z,40.80
2022-08-19T19:55:34.765Z,40.93
2022-08-19T19:58:01.332Z,40.72
2022-08-19T20:00:28.097Z,40.94
2022-08-19T20:02:55.918Z,41.43
2022-08-19T20:05:24.324Z,41.44
2022-08-19T20:08:10.501Z,41.67
2022-08-19T20:10:38.153Z,41.87
2022-08-19T20:13:06.306Z,41.72
2022-08-19T20:15:33.068Z,41.95
2022-08-19T20:20:28.056Z,42.71
2022-08-19T20:22:54.648Z,42.29
2022-08-19T20:25:22.106Z,42.47
2022-08-19T20:27:51.678Z,42.51
2022-08-19T20:30:23.257Z,42.81
2022-08-19T20:32:50.281Z,42.59
2022-08-19T20:35:20.582Z,43.08
2022-08-19T20:37:47.834Z,43.13
2022-08-19T20:40:15.232Z,43.13
2022-08-19T20:42:43.512Z,43.58
2022-08-19T20:45:33.292Z,43.21
2022-08-19T20:48:02.707Z,43.37
2022-08-19T20:50:30.599Z,43.28
2022-08-19T20:52:57.554Z,43.73
2022-08-19T20:55:24.608Z,43.79
2022-08-19T20:57:51.697Z,43.70
2022-08-19T21:00:18.941Z,43.94
2022-08-19T21:02:46.905Z,43.77
2022-08-19T21:05:13.900Z,44.14
2022-08-19T21:07:40.825Z,44.02
2022-08-19T21:10:08.004Z,43.82
2022-08-19T21:12:34.947Z,44.43
2022-08-19T21:15:01.653Z,44.16
2022-08-19T21:17:28.216Z,44.36
2022-08-19T21:19:54.852Z,44.41
2022-08-19T21:22:21.857Z,44.49
2022-08-19T21:24:48.580Z,44.69
2022-08-19T21:27:15.130Z,44.92
2022-08-19T21:29:42.273Z,44.92
2022-08-19T21:32:11.235Z,44.86
2022-08-19T21:34:40.953Z,45.35
2022-08-19T21:37:11.625Z,45.53
2022-08-19T21:39:44.133Z,45.76
2022-08-19T21:42:12.602Z,45.91
2022-08-19T21:44:40.137Z,46.32
2022-08-19T21:47:12.519Z,46.38
2022-08-19T21:49:39.163Z,46.46
2022-08-19T21:52:06.287Z,47.01
2022-08-19T21:54:37.841Z,46.70
2022-08-19T21:57:09.981Z,47.08
2022-08-19T21:59:41.269Z,47.52
2022-08-19T22:02:22.054Z,47.68
2022-08-19T22:04:51.869Z,47.85
2022-08-19T22:07:21.999Z,48.25
2022-08-19T22:09:50.239Z,48.19
2022-08-19T22:12:26.435Z,48.57
2022-08-19T22:14:54.861Z,48.63
2022-08-19T22:17:22.987Z,48.48
2022-08-19T22:19:50.930Z,48.87
2022-08-19T22:22:32.524Z,48.76
2022-08-19T22:25:30.088Z,49.07
2022-08-19T22:28:00.396Z,49.20
2022-08-19T22:30:27.789Z,49.64
2022-08-19T22:33:02.760Z,50.05
2022-08-19T22:35:32.412Z,50.29
2022-08-19T22:38:00.300Z,50.37
2022-08-19T22:40:29.704Z,50.48
2022-08-19T22:43:00.699Z,50.83
2022-08-19T22:45:28.110Z,50.57
2022-08-19T22:47:55.085Z,50.53
2022-08-19T22:50:21.901Z,50.65
2022-08-19T22:52:52.266Z,50.19
2022-08-19T22:55:19.263Z,50.74
2022-08-19T22:57:45.809Z,50.81
2022-08-19T23:00:13.588Z,51.14
2022-08-19T23:02:51.686Z,51.79
2022-08-19T23:05:21.982Z,52.03
2022-08-19T23:07:52.107Z,51.97
2022-08-19T23:10:26.650Z,52.66
2022-08-19T23:12:56.941Z,52.74
2022-08-19T23:15:26.122Z,53.21
2022-08-19T23:17:55.093Z,53.60
2022-08-19T23:20:23.615Z,53.72
2022-08-19T23:22:50.952Z,54.01
2022-08-19T23:25:22.579Z,54.26
2022-08-19T23:28:07.972Z,54.71
2022-08-19T23:30:39.114Z,55.23
2022-08-19T23:33:13.383Z,55.32
2022-08-19T23:35:41.641Z,55.69
2022-08-19T23:38:09.479Z,55.97
2022-08-19T23:40:37.236Z,56.50
2022-08-19T23:43:06.235Z,56.71
2022-08-19T23:45:38.314Z,57.07
2022-08-19T23:48:05.603Z,57.31
2022-08-19T23:50:32.622Z,58.06
2022-08-19T23:53:00.557Z,57.71
2022-08-19T23:55:30.112Z,58.42
2022-08-19T23:57:57.645Z,58.57
